sensor_id;sensor_type;location;lat;lon;timestamp;pressure;altitude;pressure_sealevel;temperature;humidity
46583;BME280;32309;48.858;8.252;2023-01-30T00:01:36;101172.91;;;-1.27;78.31
46583;BME280;32309;48.858;8.252;2023-01-30T00:03:36;101166.09;;;-1.28;78.36
46583;BME280;32309;48.858;8.252;2023-01-30T00:05:37;101163.56;;;-1.30;78.76
46583;BME280;32309;48.858;8.252;2023-01-30T00:07:37;101167.81;;;-1.30;78.28
46583;BME280;32309;48.858;8.252;2023-01-30T00:09:37;101170.34;;;-1.29;78.44
46583;BME280;32309;48.858;8.252;2023-01-30T00:11:40;101161.84;;;-1.31;78.63
46583;BME280;32309;48.858;8.252;2023-01-30T00:13:41;101159.28;;;-1.34;78.96
46583;BME280;32309;48.858;8.252;2023-01-30T00:15:42;101149.94;;;-1.37;78.87
46583;BME280;32309;48.858;8.252;2023-01-30T00:17:43;101134.69;;;-1.37;79.07
46583;BME280;32309;48.858;8.252;2023-01-30T00:19:43;101131.31;;;-1.37;78.88
46583;BME280;32309;48.858;8.252;2023-01-30T00:21:43;101144.03;;;-1.37;78.97
46583;BME280;32309;48.858;8.252;2023-01-30T00:23:44;101141.47;;;-1.37;78.91
46583;BME280;32309;48.858;8.252;2023-01-30T00:25:44;101143.16;;;-1.36;78.97
46583;BME280;32309;48.858;8.252;2023-01-30T00:27:45;101150.78;;;-1.36;78.69
46583;BME280;32309;48.858;8.252;2023-01-30T00:29:45;101159.28;;;-1.36;79.02
46583;BME280;32309;48.858;8.252;2023-01-30T00:31:46;101160.13;;;-1.35;79.03
46583;BME280;32309;48.858;8.252;2023-01-30T00:33:46;101173.72;;;-1.35;79.04
46583;BME280;32309;48.858;8.252;2023-01-30T00:35:48;101179.66;;;-1.32;79.08
46583;BME280;32309;48.858;8.252;2023-01-30T00:37:50;101184.75;;;-1.29;79.25
46583;BME280;32309;48.858;8.252;2023-01-30T00:39:50;101201.72;;;-1.28;79.58
46583;BME280;32309;48.858;8.252;2023-01-30T00:41:53;101212.75;;;-1.25;79.38
46583;BME280;32309;48.858;8.252;2023-01-30T00:44:12;101223.78;;;-1.24;79.29
46583;BME280;32309;48.858;8.252;2023-01-30T00:46:33;101238.19;;;-1.23;79.08
46583;BME280;32309;48.858;8.252;2023-01-30T00:48:52;101250.09;;;-1.21;78.05
46583;BME280;32309;48.858;8.252;2023-01-30T00:50:53;101241.63;;;-1.20;78.71
46583;BME280;32309;48.858;8.252;2023-01-30T00:52:53;101242.50;;;-1.16;78.97
46583;BME280;32309;48.858;8.252;2023-01-30T00:54:53;101240.81;;;-1.17;79.24
46583;BME280;32309;48.858;8.252;2023-01-30T00:56:54;101252.69;;;-1.16;78.73
46583;BME280;32309;48.858;8.252;2023-01-30T00:58:54;101249.28;;;-1.17;79.33
46583;BME280;32309;48.858;8.252;2023-01-30T01:00:54;101249.28;;;-1.17;79.42
46583;BME280;32309;48.858;8.252;2023-01-30T01:02:55;101250.09;;;-1.19;79.71
46583;BME280;32309;48.858;8.252;2023-01-30T01:04:55;101237.38;;;-1.19;79.42
46583;BME280;32309;48.858;8.252;2023-01-30T01:06:56;101250.09;;;-1.21;78.92
46583;BME280;32309;48.858;8.252;2023-01-30T01:08:56;101251.75;;;-1.24;79.96
46583;BME280;32309;48.858;8.252;2023-01-30T01:10:56;101253.47;;;-1.25;79.89
46583;BME280;32309;48.858;8.252;2023-01-30T01:12:57;101236.47;;;-1.27;80.03
46583;BME280;32309;48.858;8.252;2023-01-30T01:14:57;101239.00;;;-1.32;80.21
46583;BME280;32309;48.858;8.252;2023-01-30T01:16:57;101238.97;;;-1.34;80.42
46583;BME280;32309;48.858;8.252;2023-01-30T01:18:58;101238.97;;;-1.34;80.27
46583;BME280;32309;48.858;8.252;2023-01-30T01:21:02;101243.22;;;-1.34;80.34
46583;BME280;32309;48.858;8.252;2023-01-30T01:23:03;101249.13;;;-1.37;80.66
46583;BME280;32309;48.858;8.252;2023-01-30T01:25:03;101252.50;;;-1.38;80.23
46583;BME280;32309;48.858;8.252;2023-01-30T01:27:04;101271.16;;;-1.39;80.15
46583;BME280;32309;48.858;8.252;2023-01-30T01:29:04;101279.66;;;-1.37;79.79
46583;BME280;32309;48.858;8.252;2023-01-30T01:31:08;101276.28;;;-1.37;80.05
46583;BME280;32309;48.858;8.252;2023-01-30T01:33:10;101256.72;;;-1.41;80.57
46583;BME280;32309;48.858;8.252;2023-01-30T01:35:12;101255.88;;;-1.39;80.73
46583;BME280;32309;48.858;8.252;2023-01-30T01:37:13;101244.88;;;-1.38;80.45
46583;BME280;32309;48.858;8.252;2023-01-30T01:39:13;101249.97;;;-1.38;80.49
46583;BME280;32309;48.858;8.252;2023-01-30T01:41:15;101251.63;;;-1.41;80.47
46583;BME280;32309;48.858;8.252;2023-01-30T01:43:20;101255.03;;;-1.41;81.14
46583;BME280;32309;48.858;8.252;2023-01-30T01:45:22;101250.78;;;-1.42;81.26
46583;BME280;32309;48.858;8.252;2023-01-30T01:47:23;101243.16;;;-1.42;80.56
46583;BME280;32309;48.858;8.252;2023-01-30T01:49:34;101229.63;;;-1.41;80.49
46583;BME280;32309;48.858;8.252;2023-01-30T01:51:37;101212.63;;;-1.43;81.37
46583;BME280;32309;48.858;8.252;2023-01-30T01:53:50;101214.34;;;-1.42;80.82
46583;BME280;32309;48.858;8.252;2023-01-30T01:55:56;101208.38;;;-1.43;81.00
46583;BME280;32309;48.858;8.252;2023-01-30T01:58:03;101194.00;;;-1.44;80.95
46583;BME280;32309;48.858;8.252;2023-01-30T02:00:09;101173.63;;;-1.45;80.64
46583;BME280;32309;48.858;8.252;2023-01-30T02:02:11;101166.00;;;-1.47;80.29
46583;BME280;32309;48.858;8.252;2023-01-30T02:04:15;101168.53;;;-1.50;81.40
46583;BME280;32309;48.858;8.252;2023-01-30T02:06:36;101169.38;;;-1.49;79.97
46583;BME280;32309;48.858;8.252;2023-01-30T02:08:42;101198.16;;;-1.51;80.74
46583;BME280;32309;48.858;8.252;2023-01-30T02:12:55;101201.56;;;-1.52;81.76
46583;BME280;32309;48.858;8.252;2023-01-30T02:14:56;101204.94;;;-1.53;81.74
46583;BME280;32309;48.858;8.252;2023-01-30T02:16:57;101197.31;;;-1.54;82.02
46583;BME280;32309;48.858;8.252;2023-01-30T02:18:58;101177.81;;;-1.55;82.19
46583;BME280;32309;48.858;8.252;2023-01-30T02:21:02;101156.63;;;-1.54;81.18
46583;BME280;32309;48.858;8.252;2023-01-30T02:23:09;101152.38;;;-1.55;81.46
46583;BME280;32309;48.858;8.252;2023-01-30T02:27:28;101154.09;;;-1.54;81.08
46583;BME280;32309;48.858;8.252;2023-01-30T02:32:25;101144.75;;;-1.55;80.45
46583;BME280;32309;48.858;8.252;2023-01-30T02:34:52;101135.44;;;-1.55;80.97
46583;BME280;32309;48.858;8.252;2023-01-30T02:37:07;101137.97;;;-1.56;81.82
46583;BME280;32309;48.858;8.252;2023-01-30T02:41:51;101132.91;;;-1.52;81.16
46583;BME280;32309;48.858;8.252;2023-01-30T02:44:04;101120.22;;;-1.52;81.73
46583;BME280;32309;48.858;8.252;2023-01-30T02:48:22;101090.53;;;-1.49;81.75
46583;BME280;32309;48.858;8.252;2023-01-30T02:52:38;101058.31;;;-1.52;80.82
46583;BME280;32309;48.858;8.252;2023-01-30T02:54:39;101047.31;;;-1.53;81.50
46583;BME280;32309;48.858;8.252;2023-01-30T02:56:46;101032.06;;;-1.53;80.62
46583;BME280;32309;48.858;8.252;2023-01-30T02:59:03;101004.09;;;-1.49;80.49
46583;BME280;32309;48.858;8.252;2023-01-30T03:07:49;101009.22;;;-1.43;80.42
46583;BME280;32309;48.858;8.252;2023-01-30T03:12:10;100987.19;;;-1.35;79.59
46583;BME280;32309;48.858;8.252;2023-01-30T03:14:23;100960.09;;;-1.35;79.82
46583;BME280;32309;48.858;8.252;2023-01-30T03:16:32;100954.16;;;-1.30;79.57
46583;BME280;32309;48.858;8.252;2023-01-30T03:18:41;100956.69;;;-1.29;79.27
46583;BME280;32309;48.858;8.252;2023-01-30T03:20:42;100972.81;;;-1.25;79.85
46583;BME280;32309;48.858;8.252;2023-01-30T03:22:43;100983.00;;;-1.24;80.04
46583;BME280;32309;48.858;8.252;2023-01-30T03:24:43;100995.72;;;-1.21;79.49
46583;BME280;32309;48.858;8.252;2023-01-30T03:26:47;100995.72;;;-1.19;80.19
46583;BME280;32309;48.858;8.252;2023-01-30T03:28:52;100992.34;;;-1.17;79.51
46583;BME280;32309;48.858;8.252;2023-01-30T03:30:53;101005.09;;;-1.13;79.79
46583;BME280;32309;48.858;8.252;2023-01-30T03:32:54;101003.38;;;-1.11;79.66
46583;BME280;32309;48.858;8.252;2023-01-30T03:34:54;101011.00;;;-1.11;79.49
46583;BME280;32309;48.858;8.252;2023-01-30T03:36:55;101018.66;;;-1.07;79.17
46583;BME280;32309;48.858;8.252;2023-01-30T03:38:55;101017.78;;;-1.06;79.12
46583;BME280;32309;48.858;8.252;2023-01-30T03:40:55;101032.22;;;-1.03;79.00
46583;BME280;32309;48.858;8.252;2023-01-30T03:42:56;101016.97;;;-1.02;79.34
46583;BME280;32309;48.858;8.252;2023-01-30T03:44:56;101019.53;;;-0.98;78.68
46583;BME280;32309;48.858;8.252;2023-01-30T03:46:56;101031.41;;;-0.96;78.27
46583;BME280;32309;48.858;8.252;2023-01-30T03:48:57;101022.06;;;-0.94;78.36
46583;BME280;32309;48.858;8.252;2023-01-30T03:50:57;101025.47;;;-0.92;78.37
46583;BME280;32309;48.858;8.252;2023-01-30T03:52:57;101007.66;;;-0.92;78.20
46583;BME280;32309;48.858;8.252;2023-01-30T03:54:58;101011.06;;;-0.90;78.36
46583;BME280;32309;48.858;8.252;2023-01-30T03:56:58;101017.00;;;-0.91;78.17
46583;BME280;32309;48.858;8.252;2023-01-30T03:58:58;101019.53;;;-0.89;78.05
46583;BME280;32309;48.858;8.252;2023-01-30T04:00:59;101005.97;;;-0.87;78.12
46583;BME280;32309;48.858;8.252;2023-01-30T04:02:59;101007.69;;;-0.86;77.97
46583;BME280;32309;48.858;8.252;2023-01-30T04:05:00;101006.84;;;-0.83;77.97
46583;BME280;32309;48.858;8.252;2023-01-30T04:07:00;101014.47;;;-0.81;77.58
46583;BME280;32309;48.858;8.252;2023-01-30T04:09:00;101006.00;;;-0.80;77.30
46583;BME280;32309;48.858;8.252;2023-01-30T04:11:01;100996.63;;;-0.77;77.21
46583;BME280;32309;48.858;8.252;2023-01-30T04:13:01;100997.50;;;-0.75;76.97
46583;BME280;32309;48.858;8.252;2023-01-30T04:15:01;101004.28;;;-0.75;76.57
46583;BME280;32309;48.858;8.252;2023-01-30T04:17:02;101003.47;;;-0.71;77.07
46583;BME280;32309;48.858;8.252;2023-01-30T04:19:02;101006.00;;;-0.70;76.35
46583;BME280;32309;48.858;8.252;2023-01-30T04:21:02;101003.44;;;-0.68;75.93
46583;BME280;32309;48.858;8.252;2023-01-30T04:23:03;101013.63;;;-0.65;76.10
46583;BME280;32309;48.858;8.252;2023-01-30T04:25:04;101016.16;;;-0.65;75.85
46583;BME280;32309;48.858;8.252;2023-01-30T04:27:04;101014.50;;;-0.63;76.22
46583;BME280;32309;48.858;8.252;2023-01-30T04:29:05;101007.69;;;-0.61;75.89
46583;BME280;32309;48.858;8.252;2023-01-30T04:31:05;101014.47;;;-0.61;76.03
46583;BME280;32309;48.858;8.252;2023-01-30T04:33:06;101006.00;;;-0.60;76.04
46583;BME280;32309;48.858;8.252;2023-01-30T04:35:07;101005.16;;;-0.59;76.24
46583;BME280;32309;48.858;8.252;2023-01-30T04:37:07;101001.78;;;-0.57;75.61
46583;BME280;32309;48.858;8.252;2023-01-30T04:39:07;101004.31;;;-0.55;75.57
46583;BME280;32309;48.858;8.252;2023-01-30T04:41:07;101010.22;;;-0.53;75.71
46583;BME280;32309;48.858;8.252;2023-01-30T04:43:07;101015.31;;;-0.55;75.07
46583;BME280;32309;48.858;8.252;2023-01-30T04:45:08;101015.31;;;-0.55;75.23
46583;BME280;32309;48.858;8.252;2023-01-30T04:47:08;101016.16;;;-0.54;75.10
46583;BME280;32309;48.858;8.252;2023-01-30T04:49:09;101005.13;;;-0.52;75.53
46583;BME280;32309;48.858;8.252;2023-01-30T04:51:10;101008.56;;;-0.53;75.48
46583;BME280;32309;48.858;8.252;2023-01-30T04:53:11;101010.22;;;-0.52;75.46
46583;BME280;32309;48.858;8.252;2023-01-30T04:55:11;101013.63;;;-0.51;75.01
46583;BME280;32309;48.858;8.252;2023-01-30T04:57:11;101006.84;;;-0.49;74.91
46583;BME280;32309;48.858;8.252;2023-01-30T04:59:11;101014.47;;;-0.51;74.88
46583;BME280;32309;48.858;8.252;2023-01-30T05:01:12;101008.53;;;-0.46;75.29
46583;BME280;32309;48.858;8.252;2023-01-30T05:03:14;101012.78;;;-0.47;74.98
46583;BME280;32309;48.858;8.252;2023-01-30T05:05:15;101021.28;;;-0.46;75.12
46583;BME280;32309;48.858;8.252;2023-01-30T05:07:15;101008.56;;;-0.45;75.04
46583;BME280;32309;48.858;8.252;2023-01-30T05:09:15;101012.78;;;-0.44;75.49
46583;BME280;32309;48.858;8.252;2023-01-30T05:11:16;100997.53;;;-0.41;75.25
46583;BME280;32309;48.858;8.252;2023-01-30T05:13:16;101006.00;;;-0.43;74.94
46583;BME280;32309;48.858;8.252;2023-01-30T05:15:17;100987.31;;;-0.39;74.88
46583;BME280;32309;48.858;8.252;2023-01-30T05:17:17;100993.25;;;-0.37;74.63
46583;BME280;32309;48.858;8.252;2023-01-30T05:19:17;100992.41;;;-0.38;74.01
46583;BME280;32309;48.858;8.252;2023-01-30T05:21:19;100987.31;;;-0.35;74.13
46583;BME280;32309;48.858;8.252;2023-01-30T05:23:19;100983.91;;;-0.34;73.96
46583;BME280;32309;48.858;8.252;2023-01-30T05:25:19;100978.81;;;-0.32;74.28
46583;BME280;32309;48.858;8.252;2023-01-30T05:27:20;100986.47;;;-0.34;73.63
46583;BME280;32309;48.858;8.252;2023-01-30T05:29:20;100993.25;;;-0.32;73.99
46583;BME280;32309;48.858;8.252;2023-01-30T05:31:21;100992.41;;;-0.33;73.81
46583;BME280;32309;48.858;8.252;2023-01-30T05:33:22;100987.31;;;-0.31;74.40
46583;BME280;32309;48.858;8.252;2023-01-30T05:35:22;100996.63;;;-0.30;73.99
46583;BME280;32309;48.858;8.252;2023-01-30T05:37:22;100999.19;;;-0.30;73.82
46583;BME280;32309;48.858;8.252;2023-01-30T05:39:23;100992.41;;;-0.28;74.24
46583;BME280;32309;48.858;8.252;2023-01-30T05:41:23;100977.97;;;-0.29;74.43
46583;BME280;32309;48.858;8.252;2023-01-30T05:43:23;100975.44;;;-0.32;73.88
46583;BME280;32309;48.858;8.252;2023-01-30T05:45:24;100983.91;;;-0.32;74.11
46583;BME280;32309;48.858;8.252;2023-01-30T05:47:24;100972.88;;;-0.34;74.26
46583;BME280;32309;48.858;8.252;2023-01-30T05:49:24;100957.59;;;-0.37;74.56
46583;BME280;32309;48.858;8.252;2023-01-30T05:51:25;100966.94;;;-0.35;74.29
46583;BME280;32309;48.858;8.252;2023-01-30T05:53:27;100954.19;;;-0.36;74.58
46583;BME280;32309;48.858;8.252;2023-01-30T05:55:29;100966.94;;;-0.36;74.41
46583;BME280;32309;48.858;8.252;2023-01-30T05:57:29;100970.34;;;-0.36;74.29
46583;BME280;32309;48.858;8.252;2023-01-30T05:59:29;100975.44;;;-0.34;74.59
46583;BME280;32309;48.858;8.252;2023-01-30T06:01:30;100972.88;;;-0.32;74.29
46583;BME280;32309;48.858;8.252;2023-01-30T06:03:30;100962.69;;;-0.34;74.32
46583;BME280;32309;48.858;8.252;2023-01-30T06:05:31;100954.22;;;-0.33;74.21
46583;BME280;32309;48.858;8.252;2023-01-30T06:07:31;100962.69;;;-0.34;74.21
46583;BME280;32309;48.858;8.252;2023-01-30T06:09:31;100963.53;;;-0.34;74.74
46583;BME280;32309;48.858;8.252;2023-01-30T06:11:32;100967.78;;;-0.34;74.89
46583;BME280;32309;48.858;8.252;2023-01-30T06:13:32;100970.34;;;-0.32;74.60
46583;BME280;32309;48.858;8.252;2023-01-30T06:15:33;100966.94;;;-0.33;74.56
46583;BME280;32309;48.858;8.252;2023-01-30T06:17:33;100974.59;;;-0.31;74.99
46583;BME280;32309;48.858;8.252;2023-01-30T06:19:33;100963.53;;;-0.29;74.91
46583;BME280;32309;48.858;8.252;2023-01-30T06:21:34;100966.94;;;-0.31;74.72
46583;BME280;32309;48.858;8.252;2023-01-30T06:23:34;100956.75;;;-0.31;75.00
46583;BME280;32309;48.858;8.252;2023-01-30T06:25:34;100955.88;;;-0.32;74.71
46583;BME280;32309;48.858;8.252;2023-01-30T06:29:40;100948.25;;;-0.32;75.08
46583;BME280;32309;48.858;8.252;2023-01-30T06:31:40;100948.25;;;-0.32;75.00
46583;BME280;32309;48.858;8.252;2023-01-30T06:33:46;100944.00;;;-0.31;75.40
46583;BME280;32309;48.858;8.252;2023-01-30T06:35:52;100949.94;;;-0.31;75.26
46583;BME280;32309;48.858;8.252;2023-01-30T06:37:55;100932.97;;;-0.32;75.65
46583;BME280;32309;48.858;8.252;2023-01-30T06:39:57;100929.56;;;-0.32;75.21
46583;BME280;32309;48.858;8.252;2023-01-30T06:42:19;100927.03;;;-0.32;75.25
46583;BME280;32309;48.858;8.252;2023-01-30T06:44:20;100924.47;;;-0.31;75.16
46583;BME280;32309;48.858;8.252;2023-01-30T06:46:20;100933.81;;;-0.28;75.11
46583;BME280;32309;48.858;8.252;2023-01-30T06:48:20;100937.19;;;-0.28;74.64
46583;BME280;32309;48.858;8.252;2023-01-30T06:50:22;100930.41;;;-0.26;74.36
46583;BME280;32309;48.858;8.252;2023-01-30T06:52:24;100933.81;;;-0.24;74.36
46583;BME280;32309;48.858;8.252;2023-01-30T06:54:25;100933.81;;;-0.24;74.35
46583;BME280;32309;48.858;8.252;2023-01-30T06:56:25;100938.91;;;-0.24;74.68
46583;BME280;32309;48.858;8.252;2023-01-30T06:58:25;100943.13;;;-0.21;74.54
46583;BME280;32309;48.858;8.252;2023-01-30T07:00:25;100942.28;;;-0.20;74.36
46583;BME280;32309;48.858;8.252;2023-01-30T07:02:27;100952.47;;;-0.20;74.53
46583;BME280;32309;48.858;8.252;2023-01-30T07:04:29;100947.38;;;-0.20;74.36
46583;BME280;32309;48.858;8.252;2023-01-30T07:06:29;100960.97;;;-0.20;74.39
46583;BME280;32309;48.858;8.252;2023-01-30T07:08:30;100968.59;;;-0.17;74.21
46583;BME280;32309;48.858;8.252;2023-01-30T07:10:30;100977.94;;;-0.14;74.01
46583;BME280;32309;48.858;8.252;2023-01-30T07:12:31;100980.47;;;-0.11;74.21
46583;BME280;32309;48.858;8.252;2023-01-30T07:14:31;100983.88;;;-0.13;74.26
46583;BME280;32309;48.858;8.252;2023-01-30T07:16:32;100972.00;;;-0.11;74.20
46583;BME280;32309;48.858;8.252;2023-01-30T07:18:32;100979.66;;;-0.14;73.99
46583;BME280;32309;48.858;8.252;2023-01-30T07:20:32;100976.22;;;-0.13;74.17
46583;BME280;32309;48.858;8.252;2023-01-30T07:22:33;100976.22;;;-0.13;74.74
46583;BME280;32309;48.858;8.252;2023-01-30T07:24:33;100988.97;;;-0.15;75.25
46583;BME280;32309;48.858;8.252;2023-01-30T07:26:33;100996.63;;;-0.13;75.06
46583;BME280;32309;48.858;8.252;2023-01-30T07:28:34;100990.69;;;-0.14;75.11
46583;BME280;32309;48.858;8.252;2023-01-30T07:30:34;100992.38;;;-0.16;75.40
46583;BME280;32309;48.858;8.252;2023-01-30T07:32:35;101000.03;;;-0.18;76.19
46583;BME280;32309;48.858;8.252;2023-01-30T07:34:35;101000.91;;;-0.17;75.71
46583;BME280;32309;48.858;8.252;2023-01-30T07:36:35;100995.78;;;-0.14;75.83
46583;BME280;32309;48.858;8.252;2023-01-30T07:38:36;100993.22;;;-0.19;75.95
46583;BME280;32309;48.858;8.252;2023-01-30T07:40:37;101008.53;;;-0.17;76.10
46583;BME280;32309;48.858;8.252;2023-01-30T07:42:37;101010.22;;;-0.16;76.38
46583;BME280;32309;48.858;8.252;2023-01-30T07:44:37;100998.34;;;-0.15;76.25
46583;BME280;32309;48.858;8.252;2023-01-30T07:46:37;100987.31;;;-0.14;76.39
46583;BME280;32309;48.858;8.252;2023-01-30T07:48:38;100989.84;;;-0.14;76.62
46583;BME280;32309;48.858;8.252;2023-01-30T07:50:38;100984.72;;;-0.16;76.73
46583;BME280;32309;48.858;8.252;2023-01-30T07:52:38;100988.16;;;-0.15;76.82
46583;BME280;32309;48.858;8.252;2023-01-30T07:54:39;100987.28;;;-0.13;75.93
46583;BME280;32309;48.858;8.252;2023-01-30T07:56:39;100987.31;;;-0.14;76.70
46583;BME280;32309;48.858;8.252;2023-01-30T07:58:39;100977.94;;;-0.12;76.29
46583;BME280;32309;48.858;8.252;2023-01-30T08:00:40;100968.63;;;-0.12;76.39
46583;BME280;32309;48.858;8.252;2023-01-30T08:02:40;100980.47;;;-0.11;76.43
46583;BME280;32309;48.858;8.252;2023-01-30T08:04:41;100967.75;;;-0.12;76.44
46583;BME280;32309;48.858;8.252;2023-01-30T08:06:41;100981.34;;;-0.09;76.23
46583;BME280;32309;48.858;8.252;2023-01-30T08:08:41;100971.97;;;-0.08;76.33
46583;BME280;32309;48.858;8.252;2023-01-30T08:10:42;100982.19;;;-0.04;76.44
46583;BME280;32309;48.858;8.252;2023-01-30T08:12:42;100980.47;;;-0.03;76.19
46583;BME280;32309;48.858;8.252;2023-01-30T08:14:43;100967.72;;;-0.02;76.09
46583;BME280;32309;48.858;8.252;2023-01-30T08:16:43;100958.38;;;-0.01;76.46
46583;BME280;32309;48.858;8.252;2023-01-30T08:18:43;100957.53;;;0.02;75.92
46583;BME280;32309;48.858;8.252;2023-01-30T08:20:43;100969.41;;;0.01;76.60
46583;BME280;32309;48.858;8.252;2023-01-30T08:22:44;100974.50;;;-0.01;76.61
46583;BME280;32309;48.858;8.252;2023-01-30T08:24:44;100966.03;;;-0.01;76.86
46583;BME280;32309;48.858;8.252;2023-01-30T08:26:46;100963.47;;;-0.01;77.09
46583;BME280;32309;48.858;8.252;2023-01-30T08:28:47;100982.16;;;-0.01;77.35
46583;BME280;32309;48.858;8.252;2023-01-30T08:30:47;100977.94;;;0.00;77.68
46583;BME280;32309;48.858;8.252;2023-01-30T08:32:48;100972.81;;;-0.02;78.10
46583;BME280;32309;48.858;8.252;2023-01-30T08:34:48;100966.88;;;-0.02;78.27
46583;BME280;32309;48.858;8.252;2023-01-30T08:36:48;100977.94;;;-0.05;78.53
46583;BME280;32309;48.858;8.252;2023-01-30T08:38:49;100986.41;;;-0.04;79.36
46583;BME280;32309;48.858;8.252;2023-01-30T08:40:49;100975.38;;;-0.06;79.57
46583;BME280;32309;48.858;8.252;2023-01-30T08:42:52;100969.44;;;-0.08;79.61
46583;BME280;32309;48.858;8.252;2023-01-30T08:44:52;100967.75;;;-0.08;79.46
46583;BME280;32309;48.858;8.252;2023-01-30T08:46:52;100972.84;;;-0.06;79.13
46583;BME280;32309;48.858;8.252;2023-01-30T08:48:52;100966.03;;;-0.04;79.39
46583;BME280;32309;48.858;8.252;2023-01-30T08:50:53;100964.31;;;0.01;78.38
46583;BME280;32309;48.858;8.252;2023-01-30T08:52:54;100975.38;;;0.03;78.58
46583;BME280;32309;48.858;8.252;2023-01-30T08:54:55;100967.69;;;0.06;78.24
46583;BME280;32309;48.858;8.252;2023-01-30T08:56:55;100955.81;;;0.08;77.86
46583;BME280;32309;48.858;8.252;2023-01-30T08:58:55;100934.56;;;0.11;77.80
46583;BME280;32309;48.858;8.252;2023-01-30T09:00:55;100943.91;;;0.13;78.06
46583;BME280;32309;48.858;8.252;2023-01-30T09:02:56;100950.69;;;0.13;78.56
46583;BME280;32309;48.858;8.252;2023-01-30T09:04:57;100949.84;;;0.14;79.00
46583;BME280;32309;48.858;8.252;2023-01-30T09:06:57;100952.41;;;0.12;79.01
46583;BME280;32309;48.858;8.252;2023-01-30T09:08:58;100955.78;;;0.11;79.57
46583;BME280;32309;48.858;8.252;2023-01-30T09:10:59;100947.31;;;0.11;79.82
46583;BME280;32309;48.858;8.252;2023-01-30T09:13:02;100945.59;;;0.13;80.24
46583;BME280;32309;48.858;8.252;2023-01-30T09:15:04;100943.88;;;0.16;79.14
46583;BME280;32309;48.858;8.252;2023-01-30T09:17:05;100948.13;;;0.18;79.44
46583;BME280;32309;48.858;8.252;2023-01-30T09:19:05;100953.25;;;0.16;78.77
46583;BME280;32309;48.858;8.252;2023-01-30T09:21:06;100958.31;;;0.18;78.82
46583;BME280;32309;48.858;8.252;2023-01-30T09:23:07;100945.56;;;0.21;78.26
46583;BME280;32309;48.858;8.252;2023-01-30T09:25:07;100934.50;;;0.22;78.31
46583;BME280;32309;48.858;8.252;2023-01-30T09:27:08;100932.78;;;0.24;78.59
46583;BME280;32309;48.858;8.252;2023-01-30T09:29:08;100938.72;;;0.27;78.90
46583;BME280;32309;48.858;8.252;2023-01-30T09:31:08;100931.91;;;0.32;78.42
46583;BME280;32309;48.858;8.252;2023-01-30T09:33:08;100937.84;;;0.38;78.12
46583;BME280;32309;48.858;8.252;2023-01-30T09:35:09;100924.19;;;0.43;77.80
46583;BME280;32309;48.858;8.252;2023-01-30T09:37:09;100928.47;;;0.43;77.82
46583;BME280;32309;48.858;8.252;2023-01-30T09:39:10;100928.44;;;0.47;77.68
46583;BME280;32309;48.858;8.252;2023-01-30T09:48:02;100926.69;;;0.59;77.67
46583;BME280;32309;48.858;8.252;2023-01-30T09:54:38;100928.34;;;0.63;78.40
46583;BME280;32309;48.858;8.252;2023-01-30T09:56:41;100916.44;;;0.65;78.36
46583;BME280;32309;48.858;8.252;2023-01-30T09:58:46;100907.97;;;0.61;79.61
46583;BME280;32309;48.858;8.252;2023-01-30T10:00:52;100902.81;;;0.64;79.80
46583;BME280;32309;48.858;8.252;2023-01-30T10:05:09;100910.50;;;0.61;80.63
46583;BME280;32309;48.858;8.252;2023-01-30T10:09:28;100913.91;;;0.62;81.08
46583;BME280;32309;48.858;8.252;2023-01-30T10:11:45;100908.81;;;0.60;82.31
46583;BME280;32309;48.858;8.252;2023-01-30T10:26:24;100913.09;;;0.54;86.42
46583;BME280;32309;48.858;8.252;2023-01-30T10:28:27;100916.50;;;0.53;86.55
46583;BME280;32309;48.858;8.252;2023-01-30T10:30:32;100919.03;;;0.57;86.40
46583;BME280;32309;48.858;8.252;2023-01-30T10:34:36;100892.72;;;0.52;87.42
46583;BME280;32309;48.858;8.252;2023-01-30T10:36:53;100890.19;;;0.49;87.69
46583;BME280;32309;48.858;8.252;2023-01-30T10:39:01;100885.91;;;0.51;87.70
46583;BME280;32309;48.858;8.252;2023-01-30T10:41:41;100893.56;;;0.51;88.12
46583;BME280;32309;48.858;8.252;2023-01-30T10:43:46;100886.75;;;0.53;88.30
46583;BME280;32309;48.858;8.252;2023-01-30T10:45:55;100884.22;;;0.53;88.35
46583;BME280;32309;48.858;8.252;2023-01-30T10:48:36;100887.56;;;0.55;88.01
46583;BME280;32309;48.858;8.252;2023-01-30T10:52:59;100866.31;;;0.58;88.78
46583;BME280;32309;48.858;8.252;2023-01-30T10:55:28;100871.38;;;0.62;88.59
46583;BME280;32309;48.858;8.252;2023-01-30T10:57:45;100866.28;;;0.64;88.37
46583;BME280;32309;48.858;8.252;2023-01-30T10:59:52;100866.28;;;0.64;89.67
46583;BME280;32309;48.858;8.252;2023-01-30T11:02:05;100861.19;;;0.62;90.30
46583;BME280;32309;48.858;8.252;2023-01-30T11:04:14;100860.34;;;0.60;90.37
46583;BME280;32309;48.858;8.252;2023-01-30T11:06:24;100871.41;;;0.61;91.00
46583;BME280;32309;48.858;8.252;2023-01-30T11:08:26;100875.66;;;0.59;90.90
46583;BME280;32309;48.858;8.252;2023-01-30T11:10:29;100885.03;;;0.58;91.51
46583;BME280;32309;48.858;8.252;2023-01-30T11:12:30;100881.63;;;0.58;92.03
46583;BME280;32309;48.858;8.252;2023-01-30T11:14:48;100884.16;;;0.61;91.60
46583;BME280;32309;48.858;8.252;2023-01-30T11:16:58;100891.81;;;0.59;92.35
46583;BME280;32309;48.858;8.252;2023-01-30T11:18:59;100881.59;;;0.64;90.36
46583;BME280;32309;48.858;8.252;2023-01-30T11:21:04;100873.06;;;0.62;90.95
46583;BME280;32309;48.858;8.252;2023-01-30T11:23:08;100879.06;;;0.61;92.32
46583;BME280;32309;48.858;8.252;2023-01-30T11:25:22;100887.53;;;0.64;91.80
46583;BME280;32309;48.858;8.252;2023-01-30T11:27:24;100878.19;;;0.65;91.26
46583;BME280;32309;48.858;8.252;2023-01-30T11:29:29;100892.63;;;0.66;92.42
46583;BME280;32309;48.858;8.252;2023-01-30T11:31:32;100871.34;;;0.67;92.08
46583;BME280;32309;48.858;8.252;2023-01-30T11:33:33;100880.69;;;0.68;92.10
46583;BME280;32309;48.858;8.252;2023-01-30T11:35:37;100873.06;;;0.66;92.69
46583;BME280;32309;48.858;8.252;2023-01-30T11:37:43;100870.50;;;0.68;92.76
46583;BME280;32309;48.858;8.252;2023-01-30T11:39:50;100850.91;;;0.69;93.09
46583;BME280;32309;48.858;8.252;2023-01-30T11:43:58;100862.81;;;0.70;93.20